Catalina, AZ

4:55 AM MST on March 02, 2015 (GMT -0700)
Saddlebrooke Ranch | Change Station
CLOSE
Current Station
Personal Weather Station
Location: Oracle, AZ
Elevation: 3481 ft
Nearby Weather Stations

Elev 3481 ft 32.59 °N, 110.93 °W | Updated 28 seconds ago

Overcast
Overcast
56.2 °F
Feels Like 56.2 °F
N
2.0
Wind Variable Wind from SSE
Gusts 12.0 mph

Today
High -- | Low -- °F
--% Chance of Precip.
Yesterday
High -- | Low -- °F
Precip. -- in
6:50 AM 6:21 PM
Waxing Gibbous, 91% visible
Pressure 29.85 in
Visibility 10.0 miles
Clouds Overcast 15000 ft
Dew Point 44 °F
Humidity 64%
Rainfall 0.00 in
Snow Depth Not available.
UV 0 out of 12
Pollen 8.90 out of 12
Air Quality Not available.
Flu Activity Not available.
METAR KDMA 021058Z AUTO 25011KT 10SM OVC150 16/06 A2994 RMK AO2 SLP107 T01550062 $

More Conditions Fewer Conditions

Pressure 29.85 in
Visibility 10.0 miles
Clouds Overcast 15000 ft
Dew Point 44 °F
Humidity 64%
Rainfall 0.00 in
Snow Depth Not available.
UV 0 out of 12
Pollen 8.90 out of 12
Air Quality Not available.
Flu Activity Not available.
METAR KDMA 021058Z AUTO 25011KT 10SM OVC150 16/06 A2994 RMK AO2 SLP107 T01550062 $

More Conditions Fewer Conditions

10-Day Weather Forecast

Almanac

Astronomy

Mar. 02, 2015 Rise Set
Actual Time
Civil Twilight
Nautical Twilight
Astronomical Twilight
Moon
Length of Visible Light
Length of Day
Tomorrow will be .
, % of the Moon is Illuminated

Today's Extremes

State Highs State Lows

Community

WunderPhotos

Upload Photos

1,801,757 photos uploaded!

WunderBlogs® & News

Nearby

Air Quality

  Air Quality AQ Index Pollutant
Not available.

Snow Depth

Station Depth Elevation

Earthquake Activity

City Distance Mag. Time & Date
Minimum magnitude displayed is 2.5.

Coastal Water Temperatures

Place Temperature

Nearby Weather Stations